Time;durP1;ratioP1;P1;durP2;ratioP2;P2;SDS_P1;SDS_P2;PMS_P1;PMS_P2;Temp;Humidity;BMP_temperature;BMP_pressure;BME280_temperature;BME280_humidity;BME280_pressure;Samples;Min_cycle;Max_cycle;Signal;HPM_P1;HPM_P2
2022/05/24 00:00:00;;;;;;;7.97;7.23;;;;;;;;;;5052560;28;20200;-57
2022/05/24 00:02:28;;;;;;;8.30;7.30;;;;;;;;;;5054270;28;20200;-56
2022/05/24 00:04:54;;;;;;;7.90;7.20;;;;;;;;;;5054233;28;20200;-56
2022/05/24 00:07:20;;;;;;;6.60;6.10;;;;;;;;;;5054044;28;20242;-56
2022/05/24 00:09:46;;;;;;;6.33;5.70;;;;;;;;;;5054193;28;20568;-56
2022/05/24 00:12:12;;;;;;;5.73;5.23;;;;;;;;;;5054005;28;20235;-56
2022/05/24 00:17:23;;;;;;;4.40;4.00;;;;;;;;;;5053862;28;20207;-56
2022/05/24 00:19:50;;;;;;;5.43;4.17;;;;;;;;;;5053802;28;20204;-56
2022/05/24 00:22:17;;;;;;;4.47;4.07;;;;;;;;;;5053886;28;20211;-56
2022/05/24 00:24:43;;;;;;;4.93;4.43;;;;;;;;;;5053794;28;20218;-56
2022/05/24 00:27:09;;;;;;;4.83;4.23;;;;;;;;;;5053642;28;20192;-56
2022/05/24 00:29:35;;;;;;;4.50;4.20;;;;;;;;;;5053506;28;20200;-56
2022/05/24 00:32:01;;;;;;;5.93;4.90;;;;;;;;;;5053761;28;20716;-56
2022/05/24 00:34:27;;;;;;;5.20;4.70;;;;;;;;;;5053510;28;20238;-56
2022/05/24 00:36:54;;;;;;;5.43;4.70;;;;;;;;;;5053475;28;20424;-56
2022/05/24 00:39:20;;;;;;;5.33;4.80;;;;;;;;;;5053319;28;20204;-56
2022/05/24 00:41:53;;;;;;;6.03;5.43;;;;;;;;;;5052327;28;20478;-56
2022/05/24 00:44:23;;;;;;;6.60;5.57;;;;;;;;;;5053208;28;20204;-56
2022/05/24 00:46:53;;;;;;;6.47;5.83;;;;;;;;;;5053426;28;20196;-56
2022/05/24 00:49:24;;;;;;;5.60;5.10;;;;;;;;;;5053241;28;20211;-56
2022/05/24 00:51:52;;;;;;;7.13;5.70;;;;;;;;;;5053317;28;20196;-56
2022/05/24 00:54:19;;;;;;;5.53;5.03;;;;;;;;;;5053128;28;20227;-56
2022/05/24 00:56:48;;;;;;;6.50;5.67;;;;;;;;;;5053150;28;20352;-55
2022/05/24 00:59:19;;;;;;;7.20;6.20;;;;;;;;;;5053115;28;20192;-56
2022/05/24 01:01:47;;;;;;;8.02;7.20;;;;;;;;;;5051967;28;20445;-56
2022/05/24 01:04:14;;;;;;;7.80;7.00;;;;;;;;;;5053105;28;20200;-55
2022/05/24 01:06:40;;;;;;;12.50;6.87;;;;;;;;;;5053034;28;20294;-55
2022/05/24 01:09:07;;;;;;;8.93;8.02;;;;;;;;;;5051667;28;20485;-55
2022/05/24 01:11:38;;;;;;;8.73;8.00;;;;;;;;;;5051481;28;20451;-56
2022/05/24 01:14:05;;;;;;;8.33;7.53;;;;;;;;;;5052775;28;20264;-56
2022/05/24 01:16:31;;;;;;;8.77;7.87;;;;;;;;;;5052908;28;20318;-56
2022/05/24 01:18:57;;;;;;;9.47;8.00;;;;;;;;;;5052824;28;20258;-55
2022/05/24 01:21:23;;;;;;;8.93;8.03;;;;;;;;;;5052542;28;20203;-55
2022/05/24 01:23:54;;;;;;;9.13;8.23;;;;;;;;;;5052805;28;20192;-55
2022/05/24 01:26:24;;;;;;;9.27;8.30;;;;;;;;;;5052682;28;20200;-55
2022/05/24 01:28:53;;;;;;;9.10;8.20;;;;;;;;;;5050926;28;20200;-55
2022/05/24 01:31:19;;;;;;;9.13;8.20;;;;;;;;;;5052457;28;20564;-56
2022/05/24 01:36:32;;;;;;;9.20;8.30;;;;;;;;;;5051230;28;20436;-55
2022/05/24 01:39:02;;;;;;;7.67;6.97;;;;;;;;;;5052481;28;20192;-55
2022/05/24 01:41:30;;;;;;;7.20;6.50;;;;;;;;;;5052333;28;20266;-56
2022/05/24 01:43:58;;;;;;;6.73;5.93;;;;;;;;;;5052382;28;20251;-56
2022/05/24 01:46:26;;;;;;;6.97;5.70;;;;;;;;;;5051612;28;20270;-55
2022/05/24 01:48:53;;;;;;;6.57;5.27;;;;;;;;;;5052160;28;20203;-56
2022/05/24 01:51:22;;;;;;;5.40;4.90;;;;;;;;;;5052297;28;20230;-55
2022/05/24 01:53:50;;;;;;;5.33;4.70;;;;;;;;;;5052186;28;20200;-56
2022/05/24 01:56:19;;;;;;;4.90;4.50;;;;;;;;;;5052159;28;20231;-56
2022/05/24 01:58:48;;;;;;;6.95;4.95;;;;;;;;;;5051010;28;20397;-56
2022/05/24 02:01:19;;;;;;;5.53;5.03;;;;;;;;;;5052187;28;20200;-56
2022/05/24 02:03:45;;;;;;;7.30;5.10;;;;;;;;;;5052339;28;20325;-56
2022/05/24 02:06:19;;;;;;;6.60;5.53;;;;;;;;;;5052039;28;20224;-56
2022/05/24 02:08:45;;;;;;;5.93;4.87;;;;;;;;;;5052097;28;20192;-56
2022/05/24 02:11:11;;;;;;;5.87;5.20;;;;;;;;;;5052009;28;20551;-56
2022/05/24 02:13:39;;;;;;;6.13;5.53;;;;;;;;;;5051762;28;20202;-56
2022/05/24 02:16:08;;;;;;;5.40;4.90;;;;;;;;;;5051875;28;20702;-56
2022/05/24 02:18:39;;;;;;;6.00;5.03;;;;;;;;;;5051872;28;20204;-56
2022/05/24 02:21:05;;;;;;;5.70;5.00;;;;;;;;;;5051718;28;20200;-56
2022/05/24 02:23:39;;;;;;;6.00;5.40;;;;;;;;;;5051854;28;20655;-56
2022/05/24 02:26:07;;;;;;;5.80;5.20;;;;;;;;;;5051704;28;20212;-56
2022/05/24 02:28:33;;;;;;;5.30;4.80;;;;;;;;;;5051801;28;20200;-55
2022/05/24 02:31:01;;;;;;;6.67;5.27;;;;;;;;;;5051856;28;20200;-55
2022/05/24 02:33:27;;;;;;;5.60;4.83;;;;;;;;;;5051735;28;20222;-56
2022/05/24 02:35:54;;;;;;;5.07;4.57;;;;;;;;;;5050048;28;20236;-55
2022/05/24 02:38:21;;;;;;;5.10;4.57;;;;;;;;;;5051608;28;20200;-56
2022/05/24 02:43:31;;;;;;;5.37;4.30;;;;;;;;;;5051644;28;20293;-56
2022/05/24 02:45:57;;;;;;;7.17;4.30;;;;;;;;;;5051666;28;20192;-55
2022/05/24 02:48:24;;;;;;;6.00;4.55;;;;;;;;;;5050138;28;20783;-56
2022/05/24 02:50:50;;;;;;;4.77;3.80;;;;;;;;;;5051588;28;20200;-55
2022/05/24 02:53:17;;;;;;;5.80;3.70;;;;;;;;;;5051570;28;20540;-56
2022/05/24 02:55:43;;;;;;;3.97;3.63;;;;;;;;;;5051550;28;20282;-55
2022/05/24 02:58:09;;;;;;;4.63;4.00;;;;;;;;;;5054458;28;20261;-56
2022/05/24 03:00:35;;;;;;;6.30;4.40;;;;;;;;;;5055506;28;20578;-55
2022/05/24 03:03:01;;;;;;;4.27;3.73;;;;;;;;;;5055400;28;20196;-56
2022/05/24 03:05:29;;;;;;;4.32;3.92;;;;;;;;;;5053993;28;20416;-56
2022/05/24 03:10:41;;;;;;;4.33;3.70;;;;;;;;;;5055134;28;20192;-55
2022/05/24 03:15:52;;;;;;;4.40;4.00;;;;;;;;;;5055069;28;20490;-55
2022/05/24 03:18:19;;;;;;;7.87;4.03;;;;;;;;;;5055015;28;20211;-55
2022/05/24 03:20:45;;;;;;;4.17;3.30;;;;;;;;;;5055183;28;20200;-55
2022/05/24 03:23:11;;;;;;;5.37;3.30;;;;;;;;;;5055027;28;20193;-55
2022/05/24 03:25:38;;;;;;;5.15;3.90;;;;;;;;;;5053600;28;20409;-55
2022/05/24 03:28:06;;;;;;;5.82;4.07;;;;;;;;;;5053718;28;20404;-55
2022/05/24 03:30:33;;;;;;;4.20;3.80;;;;;;;;;;5054741;28;20262;-55
2022/05/24 03:32:59;;;;;;;4.07;3.67;;;;;;;;;;5054968;28;20200;-55
2022/05/24 03:35:25;;;;;;;4.30;3.53;;;;;;;;;;5054866;28;20632;-55
2022/05/24 03:37:51;;;;;;;6.20;3.50;;;;;;;;;;5054835;28;20227;-55
2022/05/24 03:40:17;;;;;;;4.20;3.80;;;;;;;;;;5054676;28;20661;-55
2022/05/24 03:42:43;;;;;;;4.60;3.60;;;;;;;;;;5054731;28;20192;-55
2022/05/24 03:45:11;;;;;;;3.80;3.50;;;;;;;;;;5054616;28;20245;-55
2022/05/24 03:47:37;;;;;;;7.43;4.27;;;;;;;;;;5054589;28;20210;-55
2022/05/24 03:50:04;;;;;;;5.23;3.80;;;;;;;;;;5054441;28;20654;-55
2022/05/24 03:52:30;;;;;;;5.73;4.13;;;;;;;;;;5054473;28;20197;-55
2022/05/24 03:54:56;;;;;;;4.93;4.38;;;;;;;;;;5053334;28;20902;-55
2022/05/24 04:00:08;;;;;;;4.57;3.40;;;;;;;;;;5054420;28;20238;-55
2022/05/24 04:02:35;;;;;;;4.67;4.10;;;;;;;;;;5054212;28;20200;-55
2022/05/24 04:05:01;;;;;;;6.20;4.43;;;;;;;;;;5054265;28;20205;-55
2022/05/24 04:07:27;;;;;;;5.27;4.60;;;;;;;;;;5053807;28;20215;-55
2022/05/24 04:09:53;;;;;;;6.47;5.00;;;;;;;;;;5054133;28;20201;-55
2022/05/24 04:12:19;;;;;;;6.20;5.40;;;;;;;;;;5054016;28;20254;-55
2022/05/24 04:14:46;;;;;;;5.53;5.03;;;;;;;;;;5054055;28;20228;-55
2022/05/24 04:17:12;;;;;;;6.90;6.20;;;;;;;;;;5053766;28;20228;-56
2022/05/24 04:19:39;;;;;;;7.53;6.53;;;;;;;;;;5053759;28;20715;-55
2022/05/24 04:22:06;;;;;;;7.37;6.67;;;;;;;;;;5053786;28;20279;-55
2022/05/24 04:24:32;;;;;;;7.13;6.43;;;;;;;;;;5053565;28;20216;-55
2022/05/24 04:26:58;;;;;;;8.60;7.77;;;;;;;;;;5053418;28;20192;-55
2022/05/24 04:29:24;;;;;;;7.83;7.03;;;;;;;;;;5053728;28;20291;-55
2022/05/24 04:31:49;;;;;;;7.37;6.67;;;;;;;;;;5053864;28;20203;-55
2022/05/24 04:34:16;;;;;;;8.13;7.33;;;;;;;;;;5053847;28;20283;-55
2022/05/24 04:36:43;;;;;;;10.37;7.67;;;;;;;;;;5053581;28;20694;-55
2022/05/24 04:39:09;;;;;;;9.67;7.77;;;;;;;;;;5053216;28;20295;-56
2022/05/24 04:44:20;;;;;;;8.87;8.07;;;;;;;;;;5053364;28;20187;-56
2022/05/24 04:49:30;;;;;;;8.23;7.43;;;;;;;;;;5053420;28;20261;-55
2022/05/24 04:51:58;;;;;;;8.17;7.37;;;;;;;;;;5053399;28;20231;-55
2022/05/24 04:54:24;;;;;;;8.33;7.40;;;;;;;;;;5053089;28;20231;-55
2022/05/24 04:56:50;;;;;;;8.57;7.60;;;;;;;;;;5052978;28;20260;-55
2022/05/24 04:59:18;;;;;;;8.67;7.80;;;;;;;;;;5053082;28;20200;-56
2022/05/24 05:01:45;;;;;;;12.00;9.47;;;;;;;;;;5053386;28;20196;-56
2022/05/24 05:04:11;;;;;;;9.20;8.17;;;;;;;;;;5053028;28;20226;-55
2022/05/24 05:06:37;;;;;;;9.00;8.17;;;;;;;;;;5052863;28;20215;-55
2022/05/24 05:09:04;;;;;;;9.43;8.53;;;;;;;;;;5053008;28;20662;-55
2022/05/24 05:11:30;;;;;;;9.43;8.53;;;;;;;;;;5052858;28;20853;-55
2022/05/24 05:13:56;;;;;;;8.70;7.80;;;;;;;;;;5052309;28;20236;-56
2022/05/24 05:16:22;;;;;;;9.00;8.07;;;;;;;;;;5052610;28;20254;-56
2022/05/24 05:18:48;;;;;;;9.67;8.60;;;;;;;;;;5052451;28;20200;-55
2022/05/24 05:21:14;;;;;;;9.97;8.30;;;;;;;;;;5052167;28;20624;-55
2022/05/24 05:23:41;;;;;;;10.87;8.97;;;;;;;;;;5052903;28;20283;-55
2022/05/24 05:26:08;;;;;;;11.17;8.67;;;;;;;;;;5052463;28;20220;-55
2022/05/24 05:28:34;;;;;;;9.87;8.87;;;;;;;;;;5052690;28;20208;-55
2022/05/24 05:33:45;;;;;;;11.70;9.60;;;;;;;;;;5052421;28;20568;-55
2022/05/24 05:36:11;;;;;;;10.53;9.43;;;;;;;;;;5052383;28;20307;-55
2022/05/24 05:38:37;;;;;;;9.90;8.90;;;;;;;;;;5052401;28;20538;-55
2022/05/24 05:41:04;;;;;;;10.87;9.83;;;;;;;;;;5052222;28;20196;-55
2022/05/24 05:43:31;;;;;;;11.57;9.17;;;;;;;;;;5052311;28;20230;-56
2022/05/24 05:45:58;;;;;;;10.10;9.10;;;;;;;;;;5052421;28;20214;-55
2022/05/24 05:48:25;;;;;;;12.93;11.60;;;;;;;;;;5051942;28;20211;-55
2022/05/24 05:50:51;;;;;;;13.07;11.63;;;;;;;;;;5052227;28;20200;-56
2022/05/24 05:53:17;;;;;;;15.73;11.67;;;;;;;;;;5052226;28;20279;-56
2022/05/24 05:55:43;;;;;;;13.60;12.30;;;;;;;;;;5052170;28;20227;-55
2022/05/24 05:58:10;;;;;;;15.07;13.13;;;;;;;;;;5052124;28;20192;-56
2022/05/24 06:00:39;;;;;;;15.27;12.40;;;;;;;;;;5051991;28;20250;-55
2022/05/24 06:03:05;;;;;;;15.00;12.80;;;;;;;;;;5052031;28;20279;-55
2022/05/24 06:05:31;;;;;;;15.00;13.50;;;;;;;;;;5051902;28;20203;-55
2022/05/24 06:07:57;;;;;;;16.40;13.37;;;;;;;;;;5051993;28;20197;-56
2022/05/24 06:10:24;;;;;;;18.07;16.33;;;;;;;;;;5050588;28;20447;-56
2022/05/24 06:12:51;;;;;;;16.38;14.88;;;;;;;;;;5050660;28;20428;-55
2022/05/24 06:15:17;;;;;;;17.55;15.90;;;;;;;;;;5050444;28;20902;-55
2022/05/24 06:17:45;;;;;;;15.90;14.40;;;;;;;;;;5050775;28;20413;-56
2022/05/24 06:20:12;;;;;;;14.97;13.57;;;;;;;;;;5051826;28;20228;-56
2022/05/24 06:22:38;;;;;;;15.43;13.93;;;;;;;;;;5051738;28;20572;-56
2022/05/24 06:25:04;;;;;;;16.52;14.98;;;;;;;;;;5050545;28;20807;-56
2022/05/24 06:27:30;;;;;;;15.93;14.33;;;;;;;;;;5051607;28;20647;-56
2022/05/24 06:29:56;;;;;;;15.57;14.07;;;;;;;;;;5051716;28;20204;-56
2022/05/24 06:32:22;;;;;;;15.33;13.87;;;;;;;;;;5054763;28;20790;-55
2022/05/24 06:34:52;;;;;;;16.40;14.87;;;;;;;;;;5055238;28;20284;-55
2022/05/24 06:37:18;;;;;;;17.15;15.65;;;;;;;;;;5054155;28;20465;-55
2022/05/24 06:39:45;;;;;;;17.95;16.38;;;;;;;;;;5054524;28;20427;-56
2022/05/24 06:42:11;;;;;;;17.58;16.02;;;;;;;;;;5054390;28;20875;-55
2022/05/24 06:44:37;;;;;;;18.98;17.27;;;;;;;;;;5054107;28;20456;-55
2022/05/24 06:47:03;;;;;;;17.23;15.83;;;;;;;;;;5054208;28;20436;-56
2022/05/24 06:49:29;;;;;;;16.93;15.27;;;;;;;;;;5055302;28;20217;-55
2022/05/24 06:51:56;;;;;;;16.67;15.17;;;;;;;;;;5055307;28;20263;-56
2022/05/24 06:54:22;;;;;;;17.23;15.53;;;;;;;;;;5055135;28;20243;-56
2022/05/24 06:56:49;;;;;;;15.50;14.00;;;;;;;;;;5055158;28;20236;-56
2022/05/24 07:04:44;;;;;;;16.60;15.00;;;;;;;;;;5055253;28;20192;-55
2022/05/24 07:07:11;;;;;;;18.10;16.40;;;;;;;;;;5055056;28;20196;-56
2022/05/24 07:09:40;;;;;;;17.20;15.50;;;;;;;;;;5054919;28;20210;-56
2022/05/24 07:12:06;;;;;;;17.00;15.47;;;;;;;;;;5054900;28;20856;-56
2022/05/24 07:14:33;;;;;;;16.47;15.07;;;;;;;;;;5054776;28;20272;-56
2022/05/24 07:16:59;;;;;;;17.57;15.83;;;;;;;;;;5054809;28;20682;-56
2022/05/24 07:19:25;;;;;;;16.33;14.87;;;;;;;;;;5054672;28;20206;-55
2022/05/24 07:21:51;;;;;;;17.77;16.17;;;;;;;;;;5053502;28;20401;-56
2022/05/24 07:24:19;;;;;;;18.38;16.77;;;;;;;;;;5053432;28;20493;-59
2022/05/24 07:26:45;;;;;;;18.40;16.80;;;;;;;;;;5053494;28;20427;-58
2022/05/24 07:29:11;;;;;;;17.88;16.27;;;;;;;;;;5053333;28;20409;-60
2022/05/24 07:31:38;;;;;;;16.30;14.80;;;;;;;;;;5054442;28;20859;-62
2022/05/24 07:34:04;;;;;;;15.60;14.07;;;;;;;;;;5054351;28;20208;-58
2022/05/24 07:36:30;;;;;;;14.97;13.50;;;;;;;;;;5054501;28;20228;-56
2022/05/24 07:38:58;;;;;;;14.97;13.53;;;;;;;;;;5054656;28;20195;-57
2022/05/24 07:46:56;;;;;;;14.70;13.20;;;;;;;;;;5054306;28;20207;-56
2022/05/24 07:49:22;;;;;;;15.50;13.57;;;;;;;;;;5054166;28;20196;-57
2022/05/24 07:51:48;;;;;;;14.50;13.00;;;;;;;;;;5054319;28;20191;-57
2022/05/24 07:54:14;;;;;;;18.00;13.47;;;;;;;;;;5054328;28;20560;-56
2022/05/24 07:56:44;;;;;;;14.37;12.97;;;;;;;;;;5054264;28;20220;-56
2022/05/24 07:59:10;;;;;;;16.57;14.87;;;;;;;;;;5054288;28;20581;-57
2022/05/24 08:01:36;;;;;;;15.88;14.45;;;;;;;;;;5052800;28;20414;-57
2022/05/24 08:04:03;;;;;;;16.67;15.18;;;;;;;;;;5052781;28;21030;-58
2022/05/24 08:06:29;;;;;;;16.40;15.00;;;;;;;;;;5052940;28;20404;-59
2022/05/24 08:08:55;;;;;;;14.85;13.35;;;;;;;;;;5052958;28;20818;-58
2022/05/24 08:11:21;;;;;;;11.47;10.37;;;;;;;;;;5053961;28;20200;-57
2022/05/24 08:13:48;;;;;;;10.50;9.40;;;;;;;;;;5053870;28;20263;-58
2022/05/24 08:16:14;;;;;;;9.80;8.47;;;;;;;;;;5053836;28;20235;-58
2022/05/24 08:18:40;;;;;;;7.97;6.80;;;;;;;;;;5054002;28;20610;-57
2022/05/24 08:21:06;;;;;;;6.63;5.80;;;;;;;;;;5053834;28;20574;-58
2022/05/24 08:23:33;;;;;;;6.67;5.40;;;;;;;;;;5053561;28;20211;-58
2022/05/24 08:25:59;;;;;;;6.97;5.80;;;;;;;;;;5053818;28;20630;-57
2022/05/24 08:28:25;;;;;;;11.77;5.20;;;;;;;;;;5053653;28;20196;-58
2022/05/24 08:30:56;;;;;;;5.83;5.03;;;;;;;;;;5053780;28;20242;-58
2022/05/24 08:33:23;;;;;;;5.97;5.27;;;;;;;;;;5053733;28;20295;-58
2022/05/24 08:35:50;;;;;;;8.10;5.87;;;;;;;;;;5053618;28;20224;-58
2022/05/24 08:38:16;;;;;;;6.73;6.00;;;;;;;;;;5053736;28;20606;-56
2022/05/24 08:40:43;;;;;;;7.23;6.03;;;;;;;;;;5053594;28;20232;-56
2022/05/24 08:43:23;;;;;;;7.87;5.83;;;;;;;;;;5053622;28;20254;-55
2022/05/24 08:48:40;;;;;;;8.23;7.07;;;;;;;;;;5052160;28;20416;-56
2022/05/24 08:51:08;;;;;;;9.50;7.35;;;;;;;;;;5052195;28;20601;-56
2022/05/24 08:53:36;;;;;;;8.47;6.43;;;;;;;;;;5051801;28;20412;-57
2022/05/24 08:56:05;;;;;;;9.20;6.70;;;;;;;;;;5051401;28;20784;-57
2022/05/24 08:58:31;;;;;;;7.88;6.38;;;;;;;;;;5052053;28;20419;-59
2022/05/24 09:00:58;;;;;;;7.60;6.45;;;;;;;;;;5052102;28;20475;-58
2022/05/24 09:03:25;;;;;;;7.57;5.88;;;;;;;;;;5051761;28;20520;-57
2022/05/24 09:05:57;;;;;;;6.90;5.77;;;;;;;;;;5053163;28;20214;-56
2022/05/24 09:08:26;;;;;;;6.85;5.55;;;;;;;;;;5051666;28;21044;-58
2022/05/24 09:10:56;;;;;;;5.90;4.90;;;;;;;;;;5052951;28;20204;-58
2022/05/24 09:13:27;;;;;;;7.07;5.70;;;;;;;;;;5051326;28;20488;-58
2022/05/24 09:15:56;;;;;;;7.28;6.03;;;;;;;;;;5051250;28;20910;-58
2022/05/24 09:18:26;;;;;;;5.53;5.03;;;;;;;;;;5052512;28;20562;-57
2022/05/24 09:20:54;;;;;;;8.95;6.15;;;;;;;;;;5051588;28;20401;-56
2022/05/24 09:23:24;;;;;;;7.43;5.80;;;;;;;;;;5051151;28;20417;-56
2022/05/24 09:25:54;;;;;;;7.15;6.45;;;;;;;;;;5051447;28;20402;-56
2022/05/24 09:28:40;;;;;;;6.93;6.20;;;;;;;;;;5051332;28;20409;-56
2022/05/24 09:31:06;;;;;;;7.95;7.15;;;;;;;;;;5051268;28;20799;-56
2022/05/24 09:33:32;;;;;;;7.28;6.57;;;;;;;;;;5051332;28;20398;-56
2022/05/24 09:36:00;;;;;;;8.88;7.47;;;;;;;;;;5051430;28;20428;-57
2022/05/24 09:38:29;;;;;;;9.23;7.77;;;;;;;;;;5051262;28;20482;-56
2022/05/24 09:40:57;;;;;;;8.00;6.63;;;;;;;;;;5051243;28;20416;-56
2022/05/24 09:43:26;;;;;;;7.85;6.22;;;;;;;;;;5051084;28;20899;-57
2022/05/24 09:45:54;;;;;;;7.85;6.20;;;;;;;;;;5050940;28;20456;-56
2022/05/24 09:48:21;;;;;;;8.33;7.53;;;;;;;;;;5050725;28;20896;-56
2022/05/24 09:50:50;;;;;;;7.47;6.22;;;;;;;;;;5050800;28;20887;-56
2022/05/24 09:53:19;;;;;;;6.20;5.45;;;;;;;;;;5050756;28;20405;-55
2022/05/24 09:55:47;;;;;;;7.15;5.57;;;;;;;;;;5050674;28;20409;-55
2022/05/24 09:58:20;;;;;;;6.47;5.57;;;;;;;;;;5048950;28;20408;-55
2022/05/24 10:00:51;;;;;;;6.18;5.57;;;;;;;;;;5051151;28;20477;-55
2022/05/24 10:03:20;;;;;;;6.95;6.28;;;;;;;;;;5050778;28;20454;-55
2022/05/24 10:05:53;;;;;;;7.30;6.50;;;;;;;;;;5050576;28;20500;-54
2022/05/24 10:08:21;;;;;;;8.20;7.40;;;;;;;;;;5050695;28;20530;-53
2022/05/24 10:10:48;;;;;;;7.73;6.93;;;;;;;;;;5051989;28;20204;-54
2022/05/24 10:13:17;;;;;;;7.40;6.73;;;;;;;;;;5052012;28;20535;-56
2022/05/24 10:15:49;;;;;;;8.60;6.93;;;;;;;;;;5051770;28;20742;-54
2022/05/24 10:18:28;;;;;;;8.60;7.73;;;;;;;;;;5053406;28;20216;-54
2022/05/24 10:21:00;;;;;;;9.02;8.13;;;;;;;;;;5050789;28;20462;-54
2022/05/24 10:23:32;;;;;;;8.40;7.25;;;;;;;;;;5050553;28;20435;-55
2022/05/24 10:26:05;;;;;;;7.93;7.20;;;;;;;;;;5050374;28;20445;-55
2022/05/24 10:28:38;;;;;;;7.68;6.97;;;;;;;;;;5050434;28;20446;-55
2022/05/24 10:31:06;;;;;;;7.35;6.60;;;;;;;;;;5050445;28;20419;-55
2022/05/24 10:39:18;;;;;;;6.47;5.17;;;;;;;;;;5051703;28;20223;-55
2022/05/24 10:41:50;;;;;;;5.47;4.97;;;;;;;;;;5051578;28;20299;-55
2022/05/24 10:44:18;;;;;;;7.40;5.20;;;;;;;;;;5050010;28;20196;-55
2022/05/24 10:46:45;;;;;;;8.90;5.20;;;;;;;;;;5051545;28;20197;-55
2022/05/24 10:49:16;;;;;;;5.40;4.90;;;;;;;;;;5051719;28;20370;-55
2022/05/24 10:51:48;;;;;;;6.23;4.90;;;;;;;;;;5051725;28;20227;-56
2022/05/24 10:54:21;;;;;;;6.30;5.00;;;;;;;;;;5050051;28;20193;-56
2022/05/24 10:56:49;;;;;;;5.33;4.80;;;;;;;;;;5051258;28;20587;-57
2022/05/24 10:59:20;;;;;;;6.37;5.17;;;;;;;;;;5051325;28;20250;-58
2022/05/24 11:01:50;;;;;;;6.57;5.60;;;;;;;;;;5051774;28;20204;-57
2022/05/24 11:04:18;;;;;;;7.33;6.73;;;;;;;;;;5051501;28;20288;-56
2022/05/24 11:06:47;;;;;;;8.43;5.63;;;;;;;;;;5051535;28;20218;-55
2022/05/24 11:09:15;;;;;;;7.53;6.53;;;;;;;;;;5051495;28;20242;-56
2022/05/24 11:11:44;;;;;;;7.23;6.50;;;;;;;;;;5051375;28;20239;-55
2022/05/24 11:14:14;;;;;;;7.23;6.53;;;;;;;;;;5051231;28;20270;-55
2022/05/24 11:16:41;;;;;;;10.57;7.90;;;;;;;;;;5050981;28;20395;-56
2022/05/24 11:19:09;;;;;;;4.93;4.50;;;;;;;;;;5054104;28;20196;-57
2022/05/24 11:21:36;;;;;;;4.17;3.77;;;;;;;;;;5055142;28;20234;-57
2022/05/24 11:24:04;;;;;;;5.23;3.67;;;;;;;;;;5054994;28;20238;-57
2022/05/24 11:26:32;;;;;;;4.30;3.47;;;;;;;;;;5054889;28;20204;-57
2022/05/24 11:29:11;;;;;;;4.80;3.80;;;;;;;;;;5054776;28;20213;-57
2022/05/24 11:31:40;;;;;;;5.25;4.15;;;;;;;;;;5053381;28;20416;-57
2022/05/24 11:34:11;;;;;;;5.03;4.47;;;;;;;;;;5053524;28;20451;-58
2022/05/24 11:36:40;;;;;;;4.83;4.13;;;;;;;;;;5054681;28;20235;-59
2022/05/24 11:39:08;;;;;;;4.70;3.83;;;;;;;;;;5054855;28;20197;-57
2022/05/24 11:41:34;;;;;;;5.37;4.60;;;;;;;;;;5054599;28;20684;-58
2022/05/24 11:44:03;;;;;;;5.00;4.50;;;;;;;;;;5054818;28;20295;-58
2022/05/24 11:46:45;;;;;;;5.30;4.00;;;;;;;;;;5054587;28;20223;-58
2022/05/24 11:49:12;;;;;;;5.53;4.00;;;;;;;;;;5054564;28;20577;-58
2022/05/24 11:51:41;;;;;;;5.03;4.17;;;;;;;;;;5054509;28;20204;-58
2022/05/24 11:54:28;;;;;;;5.47;3.90;;;;;;;;;;5054442;28;20275;-58
2022/05/24 11:56:55;;;;;;;7.03;3.60;;;;;;;;;;5054288;28;20219;-58
2022/05/24 11:59:35;;;;;;;4.33;3.30;;;;;;;;;;5054340;28;20573;-58
2022/05/24 12:02:33;;;;;;;3.80;3.40;;;;;;;;;;5053911;28;20244;-58
2022/05/24 12:07:54;;;;;;;3.53;3.23;;;;;;;;;;5054064;28;20199;-58
2022/05/24 12:10:41;;;;;;;5.00;2.77;;;;;;;;;;5054071;28;20681;-58
2022/05/24 12:13:40;;;;;;;4.70;3.30;;;;;;;;;;5054227;28;20221;-58
2022/05/24 12:16:27;;;;;;;3.40;2.53;;;;;;;;;;5053966;28;20684;-58
2022/05/24 12:18:55;;;;;;;4.47;3.33;;;;;;;;;;5053874;28;20784;-58
2022/05/24 12:21:43;;;;;;;4.27;2.90;;;;;;;;;;5053727;28;20564;-58
2022/05/24 12:24:28;;;;;;;5.03;2.83;;;;;;;;;;5053855;28;20209;-58
2022/05/24 12:27:09;;;;;;;3.53;2.80;;;;;;;;;;5053942;28;20192;-58
2022/05/24 12:29:35;;;;;;;3.40;2.50;;;;;;;;;;5053324;28;20215;-57
2022/05/24 12:32:02;;;;;;;3.47;2.30;;;;;;;;;;5053755;28;20202;-57
2022/05/24 12:34:30;;;;;;;2.90;2.10;;;;;;;;;;5051937;28;20195;-57
2022/05/24 12:36:58;;;;;;;2.73;2.30;;;;;;;;;;5051985;28;20242;-57
2022/05/24 12:39:26;;;;;;;5.67;2.37;;;;;;;;;;5052916;28;20250;-56
2022/05/24 12:41:55;;;;;;;3.30;2.13;;;;;;;;;;5053357;28;20203;-57
2022/05/24 12:44:22;;;;;;;2.77;1.80;;;;;;;;;;5053335;28;20192;-56
2022/05/24 12:46:50;;;;;;;2.63;2.07;;;;;;;;;;5051710;28;20194;-56
2022/05/24 12:49:17;;;;;;;5.20;1.90;;;;;;;;;;5053530;28;20566;-56
2022/05/24 12:51:43;;;;;;;2.77;1.87;;;;;;;;;;5053548;28;20277;-57
2022/05/24 12:54:15;;;;;;;3.00;1.73;;;;;;;;;;5053222;28;20588;-57
2022/05/24 12:56:52;;;;;;;2.77;1.93;;;;;;;;;;5053113;28;20234;-56
2022/05/24 12:59:18;;;;;;;2.83;1.90;;;;;;;;;;5052983;28;20623;-58
2022/05/24 13:01:44;;;;;;;3.20;1.97;;;;;;;;;;5053185;28;20298;-57
2022/05/24 13:04:14;;;;;;;4.73;2.10;;;;;;;;;;5053069;28;20257;-57
2022/05/24 13:06:40;;;;;;;2.43;2.13;;;;;;;;;;5053044;28;20269;-56
2022/05/24 13:09:19;;;;;;;3.83;2.13;;;;;;;;;;5053053;28;20544;-55
2022/05/24 13:11:46;;;;;;;4.90;2.03;;;;;;;;;;5052911;28;20200;-57
2022/05/24 13:14:19;;;;;;;2.63;2.10;;;;;;;;;;5052717;28;20261;-57
2022/05/24 13:16:45;;;;;;;2.60;2.07;;;;;;;;;;5052833;28;20219;-56
2022/05/24 13:19:11;;;;;;;2.73;2.30;;;;;;;;;;5052521;28;20206;-57
2022/05/24 13:21:38;;;;;;;3.43;2.20;;;;;;;;;;5052572;28;20545;-56
2022/05/24 13:24:09;;;;;;;3.07;2.13;;;;;;;;;;5052680;28;20242;-56
2022/05/24 13:26:36;;;;;;;4.17;2.23;;;;;;;;;;5052636;28;20192;-56
2022/05/24 13:29:17;;;;;;;3.17;1.90;;;;;;;;;;5052705;28;20702;-55
2022/05/24 13:34:29;;;;;;;3.60;2.17;;;;;;;;;;5052575;28;20740;-56
2022/05/24 13:36:56;;;;;;;4.07;1.90;;;;;;;;;;5052253;28;20691;-56
2022/05/24 13:39:24;;;;;;;3.40;2.10;;;;;;;;;;5052134;28;20224;-56
2022/05/24 13:41:56;;;;;;;2.63;2.27;;;;;;;;;;5051720;28;20200;-57
2022/05/24 13:44:26;;;;;;;3.13;2.20;;;;;;;;;;5051004;28;20415;-57
2022/05/24 13:46:57;;;;;;;3.67;2.20;;;;;;;;;;5052299;28;20199;-57
2022/05/24 13:49:27;;;;;;;2.93;2.00;;;;;;;;;;5051861;28;20200;-57
2022/05/24 13:51:53;;;;;;;4.00;2.33;;;;;;;;;;5052150;28;20286;-56
2022/05/24 13:54:32;;;;;;;2.93;2.20;;;;;;;;;;5051909;28;20234;-53
2022/05/24 13:57:00;;;;;;;2.87;1.83;;;;;;;;;;5052155;28;20760;-52
2022/05/24 13:59:26;;;;;;;4.00;2.03;;;;;;;;;;5052130;28;20290;-55
2022/05/24 14:01:54;;;;;;;3.20;2.00;;;;;;;;;;5051680;28;20673;-55
2022/05/24 14:04:22;;;;;;;2.53;1.97;;;;;;;;;;5071647;28;20286;-53
2022/05/24 14:06:50;;;;;;;2.77;2.13;;;;;;;;;;5072079;28;20203;-54
2022/05/24 14:09:16;;;;;;;4.53;2.37;;;;;;;;;;5072064;28;20203;-54
2022/05/24 14:11:48;;;;;;;4.13;2.70;;;;;;;;;;5071884;28;20195;-54
2022/05/24 14:14:15;;;;;;;4.07;2.30;;;;;;;;;;5071770;28;20428;-54
2022/05/24 14:16:42;;;;;;;6.00;2.70;;;;;;;;;;5071732;28;20231;-54
2022/05/24 14:19:08;;;;;;;3.57;2.90;;;;;;;;;;5072052;28;20202;-53
2022/05/24 14:21:34;;;;;;;3.73;2.90;;;;;;;;;;5070037;28;20199;-53
2022/05/24 14:24:00;;;;;;;8.57;3.50;;;;;;;;;;5071764;28;20222;-54
2022/05/24 14:26:27;;;;;;;5.13;3.80;;;;;;;;;;5070845;28;20204;-53
2022/05/24 14:28:54;;;;;;;5.00;4.40;;;;;;;;;;5071815;28;20203;-55
2022/05/24 14:31:23;;;;;;;5.17;4.67;;;;;;;;;;5071684;28;20202;-54
2022/05/24 14:33:49;;;;;;;6.40;5.90;;;;;;;;;;5071497;28;20208;-54
2022/05/24 14:36:15;;;;;;;6.07;5.10;;;;;;;;;;5071862;28;20220;-54
2022/05/24 14:38:41;;;;;;;4.93;4.47;;;;;;;;;;5071480;28;20200;-54
2022/05/24 14:41:20;;;;;;;6.50;5.17;;;;;;;;;;5071679;28;20295;-51
2022/05/24 14:43:47;;;;;;;6.17;5.30;;;;;;;;;;5071312;28;20689;-51
2022/05/24 14:46:14;;;;;;;7.07;5.53;;;;;;;;;;5071752;28;20220;-51
2022/05/24 14:48:41;;;;;;;6.70;5.40;;;;;;;;;;5071266;28;20200;-52
2022/05/24 14:51:07;;;;;;;5.77;5.17;;;;;;;;;;5071511;28;20640;-52
2022/05/24 14:53:33;;;;;;;7.53;5.50;;;;;;;;;;5075206;28;20192;-53
2022/05/24 14:55:59;;;;;;;6.07;5.47;;;;;;;;;;5075504;28;20200;-53
2022/05/24 14:58:26;;;;;;;6.33;5.70;;;;;;;;;;5075454;28;20192;-53
2022/05/24 15:00:52;;;;;;;6.70;6.00;;;;;;;;;;5073749;28;20719;-55
2022/05/24 15:03:18;;;;;;;6.40;5.63;;;;;;;;;;5075256;28;20667;-55
2022/05/24 15:05:45;;;;;;;7.07;6.27;;;;;;;;;;5075296;28;20200;-55
2022/05/24 15:16:32;;;;;;;6.73;6.23;;;;;;;;;;5075001;28;20245;-55
2022/05/24 15:18:59;;;;;;;6.73;6.17;;;;;;;;;;5075229;28;20202;-55
2022/05/24 15:21:30;;;;;;;6.20;5.60;;;;;;;;;;5074985;28;20202;-56
2022/05/24 15:23:58;;;;;;;5.33;4.93;;;;;;;;;;5073556;28;20679;-54
2022/05/24 15:26:28;;;;;;;5.70;5.20;;;;;;;;;;5074878;28;20343;-56
2022/05/24 15:28:55;;;;;;;5.53;5.00;;;;;;;;;;5075010;28;20206;-54
2022/05/24 15:31:21;;;;;;;5.23;4.63;;;;;;;;;;5074847;28;20225;-55
2022/05/24 15:33:50;;;;;;;5.10;4.60;;;;;;;;;;5074932;28;20217;-57
2022/05/24 15:36:16;;;;;;;5.63;4.77;;;;;;;;;;5074826;28;20642;-55
2022/05/24 15:38:43;;;;;;;4.67;4.27;;;;;;;;;;5074833;28;20634;-53
2022/05/24 15:41:09;;;;;;;6.20;4.63;;;;;;;;;;5074763;28;20217;-54